Time;durP1;ratioP1;P1;durP2;ratioP2;P2;SDS_P1;SDS_P2;PMS_P1;PMS_P2;Temp;Humidity;BMP_temperature;BMP_pressure;BME280_temperature;BME280_humidity;BME280_pressure;Samples;Min_cycle;Max_cycle;Signal;HPM_P1;HPM_P2
2021/10/18 00:00:16;;;;;;;17.05;9.18;;;;;;;3.48;94.82;99244.91;5092674;28;20028;-83
2021/10/18 00:02:42;;;;;;;16.77;9.35;;;;;;;3.38;94.13;99247.31;5095541;28;20012;-83
2021/10/18 00:05:12;;;;;;;16.60;9.43;;;;;;;3.22;94.46;99240.94;5087830;28;20040;-83
2021/10/18 00:07:38;;;;;;;17.48;9.18;;;;;;;3.09;94.61;99236.38;5099896;28;20020;-83
2021/10/18 00:10:07;;;;;;;16.63;9.50;;;;;;;3.11;95.69;99237.28;5091499;28;20043;-83
2021/10/18 00:12:34;;;;;;;17.95;10.00;;;;;;;3.16;95.89;99234.78;5088264;28;20048;-83
2021/10/18 00:14:59;;;;;;;16.73;9.32;;;;;;;3.13;95.22;99240.78;5101403;28;20330;-83
2021/10/18 00:17:25;;;;;;;15.68;8.73;;;;;;;3.07;95.14;99245.84;5100863;28;20024;-83
2021/10/18 00:19:51;;;;;;;19.73;10.40;;;;;;;3.05;95.23;99242.34;5090618;28;20020;-83
2021/10/18 00:22:17;;;;;;;17.40;9.18;;;;;;;3.07;95.97;99250.19;5091397;28;20351;-83
2021/10/18 00:24:42;;;;;;;19.50;9.85;;;;;;;3.02;95.86;99242.31;5086774;28;20028;-83
2021/10/18 00:27:07;;;;;;;19.83;9.73;;;;;;;3.06;95.84;99249.31;5095179;28;20020;-83
2021/10/18 00:29:33;;;;;;;19.15;9.60;;;;;;;3.08;95.76;99246.72;5094192;28;20031;-83
2021/10/18 00:31:59;;;;;;;21.27;9.93;;;;;;;3.01;95.25;99250.91;5090674;28;20016;-83
2021/10/18 00:34:24;;;;;;;18.48;8.27;;;;;;;2.97;94.65;99250.88;5100320;28;20052;-83
2021/10/18 00:36:49;;;;;;;22.70;9.35;;;;;;;2.92;95.31;99261.16;5095454;28;20039;-83
2021/10/18 00:39:15;;;;;;;18.17;9.52;;;;;;;2.99;95.69;99267.34;5089166;28;20392;-83
2021/10/18 00:41:40;;;;;;;22.20;10.55;;;;;;;3.12;96.00;99258.94;5097425;28;20047;-83
2021/10/18 00:44:06;;;;;;;23.98;10.82;;;;;;;3.06;95.58;99259.72;5094759;28;20024;-83
2021/10/18 00:46:32;;;;;;;21.63;10.75;;;;;;;2.90;95.01;99270.66;5100769;28;20020;-83
2021/10/18 00:48:58;;;;;;;20.60;10.23;;;;;;;2.87;96.06;99283.56;5101946;28;20016;-83
2021/10/18 00:51:26;;;;;;;20.02;9.95;;;;;;;2.95;96.25;99271.63;5091382;28;20044;-83
2021/10/18 00:53:54;;;;;;;20.92;10.25;;;;;;;3.09;95.85;99274.47;5084996;28;20016;-83
2021/10/18 00:56:20;;;;;;;20.95;10.07;;;;;;;3.02;96.08;99277.81;5093350;28;20028;-83
2021/10/18 00:58:48;;;;;;;24.73;10.35;;;;;;;3.15;96.14;99270.28;5087762;28;20026;-83
2021/10/18 01:01:14;;;;;;;22.55;10.02;;;;;;;3.20;96.46;99268.66;5098788;28;20048;-83
2021/10/18 01:03:39;;;;;;;20.23;11.07;;;;;;;3.11;96.95;99265.88;5100008;28;20082;-83
2021/10/18 01:06:05;;;;;;;23.42;10.13;;;;;;;3.12;96.79;99265.03;5083160;28;20035;-83
2021/10/18 01:08:30;;;;;;;19.35;10.73;;;;;;;3.21;96.92;99254.81;5100705;28;20020;-83
2021/10/18 01:10:56;;;;;;;25.83;9.63;;;;;;;3.27;96.59;99260.13;5102553;28;20026;-83
2021/10/18 01:13:22;;;;;;;25.30;10.80;;;;;;;3.22;97.30;99258.28;5090625;28;20083;-83
2021/10/18 01:15:47;;;;;;;28.88;11.00;;;;;;;3.16;97.25;99265.97;5091036;28;20299;-83
2021/10/18 01:18:13;;;;;;;21.85;10.57;;;;;;;3.18;97.25;99269.47;5089392;28;20019;-83
2021/10/18 01:20:40;;;;;;;22.23;10.07;;;;;;;3.29;97.48;99260.16;5088743;28;20039;-83
2021/10/18 01:23:08;;;;;;;17.73;9.88;;;;;;;3.28;96.84;99264.47;5083250;28;20024;-83
2021/10/18 01:25:33;;;;;;;22.15;11.05;;;;;;;3.21;96.61;99260.03;5084525;28;20028;-83
2021/10/18 01:27:59;;;;;;;21.00;10.70;;;;;;;3.22;96.55;99266.97;5084405;28;20035;-83
2021/10/18 01:30:26;;;;;;;42.78;12.18;;;;;;;3.12;97.28;99259.84;5089723;28;20061;-83
2021/10/18 01:32:51;;;;;;;17.92;9.80;;;;;;;3.12;97.38;99251.13;5086265;28;20023;-83
2021/10/18 01:35:17;;;;;;;19.67;9.00;;;;;;;3.13;97.21;99245.97;5094428;28;20019;-83
2021/10/18 01:37:43;;;;;;;20.23;9.90;;;;;;;3.11;97.28;99242.47;5102859;28;20028;-83
2021/10/18 01:40:11;;;;;;;17.05;9.68;;;;;;;3.17;96.93;99242.59;5101187;28;20035;-83
2021/10/18 01:42:38;;;;;;;18.98;10.90;;;;;;;3.09;96.78;99231.16;5091284;28;20028;-83
2021/10/18 01:45:06;;;;;;;28.75;9.70;;;;;;;3.07;96.11;99230.25;5075155;28;20028;-83
2021/10/18 01:47:31;;;;;;;21.52;10.50;;;;;;;3.13;96.58;99225.16;5082971;28;20188;-83
2021/10/18 01:49:57;;;;;;;16.85;9.57;;;;;;;3.18;96.00;99231.34;5100831;28;20054;-83
2021/10/18 01:52:23;;;;;;;20.63;11.30;;;;;;;3.12;96.85;99223.44;5102691;28;20027;-83
2021/10/18 01:54:49;;;;;;;34.72;11.38;;;;;;;3.11;96.58;99231.19;5091706;28;20029;-83
2021/10/18 01:57:15;;;;;;;21.20;9.43;;;;;;;2.96;97.19;99231.78;5089556;28;20346;-83
2021/10/18 01:59:40;;;;;;;19.10;9.75;;;;;;;3.13;97.15;99225.16;5085920;28;20047;-83
2021/10/18 02:02:06;;;;;;;16.77;8.60;;;;;;;3.16;96.82;99234.78;5062772;28;20024;-83
2021/10/18 02:04:31;;;;;;;18.58;8.88;;;;;;;3.10;96.25;99230.31;5062439;28;20048;-83
2021/10/18 02:06:57;;;;;;;17.92;8.45;;;;;;;2.96;96.16;99242.19;5081978;28;20020;-83
2021/10/18 02:09:23;;;;;;;20.70;9.70;;;;;;;2.97;97.15;99241.31;5083035;28;20016;-83
2021/10/18 02:11:48;;;;;;;15.93;8.68;;;;;;;3.00;96.97;99243.97;5083797;28;20020;-83
2021/10/18 02:14:14;;;;;;;17.15;9.05;;;;;;;2.90;96.81;99242.03;5082745;28;20031;-83
2021/10/18 02:16:39;;;;;;;13.35;7.90;;;;;;;2.92;96.72;99253.38;5083889;28;20031;-83
2021/10/18 02:19:05;;;;;;;16.42;9.73;;;;;;;2.76;96.33;99248.69;5098696;28;20069;-83
2021/10/18 02:21:30;;;;;;;16.85;8.48;;;;;;;2.61;96.10;99240.56;5102331;28;20016;-83
2021/10/18 02:23:55;;;;;;;16.15;8.57;;;;;;;2.59;96.86;99247.44;5093783;28;20024;-83
2021/10/18 02:26:21;;;;;;;15.50;8.93;;;;;;;2.61;96.91;99247.47;5102051;28;20254;-83
2021/10/18 02:28:46;;;;;;;16.33;8.80;;;;;;;2.57;97.26;99249.16;5088714;28;20023;-83
2021/10/18 02:31:12;;;;;;;15.90;8.98;;;;;;;2.67;97.11;99243.31;5082782;28;20024;-83
2021/10/18 02:33:37;;;;;;;17.75;9.65;;;;;;;2.72;96.42;99248.59;5085706;28;20023;-83
2021/10/18 02:36:03;;;;;;;14.43;7.97;;;;;;;2.61;96.11;99248.38;5103337;28;20073;-83
2021/10/18 02:38:28;;;;;;;17.77;9.23;;;;;;;2.46;96.50;99248.03;5101109;28;20020;-83
2021/10/18 02:40:53;;;;;;;13.88;8.02;;;;;;;2.55;95.87;99248.22;5101625;28;20141;-83
2021/10/18 02:43:19;;;;;;;16.65;8.32;;;;;;;2.55;96.41;99248.22;5103270;28;20030;-83
2021/10/18 02:45:44;;;;;;;14.07;7.68;;;;;;;2.53;96.36;99249.03;5101635;28;20083;-83
2021/10/18 02:48:12;;;;;;;14.05;8.25;;;;;;;2.65;95.70;99244.97;5101895;28;20143;-83
2021/10/18 02:50:38;;;;;;;17.75;9.40;;;;;;;2.61;95.84;99256.16;5103231;28;20082;-83
2021/10/18 02:53:04;;;;;;;18.05;8.63;;;;;;;2.62;96.01;99252.69;5093429;28;20024;-83
2021/10/18 02:55:29;;;;;;;13.98;8.52;;;;;;;2.67;96.54;99248.50;5083524;28;20024;-82
2021/10/18 02:57:54;;;;;;;18.60;9.80;;;;;;;2.86;96.90;99255.84;5082346;28;20027;-82
2021/10/18 03:00:20;;;;;;;16.33;9.43;;;;;;;2.81;97.05;99249.66;5093600;28;20437;-82
2021/10/18 03:02:45;;;;;;;18.55;9.45;;;;;;;2.83;96.74;99247.97;5092939;28;20031;-82
2021/10/18 03:05:11;;;;;;;25.80;8.70;;;;;;;2.73;96.38;99247.75;5102874;28;20078;-82
2021/10/18 03:07:36;;;;;;;50.40;9.70;;;;;;;2.61;97.12;99260.47;5101864;28;20134;-82
2021/10/18 03:10:02;;;;;;;22.13;10.48;;;;;;;2.63;97.12;99262.28;5084064;28;20097;-82
2021/10/18 03:12:28;;;;;;;33.60;9.48;;;;;;;2.55;97.32;99262.94;5083309;28;20063;-82
2021/10/18 03:14:53;;;;;;;46.15;10.30;;;;;;;2.51;97.79;99262.00;5090498;28;20020;-82
2021/10/18 03:17:19;;;;;;;16.58;8.05;;;;;;;2.57;98.20;99259.53;5101339;28;20024;-82
2021/10/18 03:19:44;;;;;;;24.65;9.70;;;;;;;2.62;97.87;99260.50;5097917;28;20016;-82
2021/10/18 03:22:09;;;;;;;27.88;10.13;;;;;;;2.71;98.47;99273.69;5082785;28;20028;-82
2021/10/18 03:24:35;;;;;;;22.40;8.85;;;;;;;2.81;98.27;99272.19;5085590;28;20087;-82
2021/10/18 03:27:00;;;;;;;31.23;10.52;;;;;;;2.75;98.12;99275.50;5085660;28;20020;-82
2021/10/18 03:29:26;;;;;;;30.45;9.20;;;;;;;2.85;98.36;99274.84;5102899;28;20028;-82
2021/10/18 03:31:51;;;;;;;70.65;9.80;;;;;;;2.83;98.16;99280.88;5106407;28;20397;-82
2021/10/18 03:34:16;;;;;;;25.73;9.38;;;;;;;2.84;98.15;99288.72;5089655;28;20243;-83
2021/10/18 03:36:42;;;;;;;48.75;9.00;;;;;;;2.84;98.49;99287.81;5086624;28;20035;-84
2021/10/18 03:39:07;;;;;;;57.50;10.48;;;;;;;2.88;98.42;99279.25;5085680;28;20024;-83
2021/10/18 03:41:33;;;;;;;36.28;9.05;;;;;;;2.78;98.04;99278.19;5087672;28;20235;-83
2021/10/18 03:43:58;;;;;;;30.55;10.32;;;;;;;2.62;98.13;99270.91;5085262;28;20067;-83
2021/10/18 03:46:24;;;;;;;32.60;9.38;;;;;;;2.64;99.11;99279.63;5083687;28;20331;-83
2021/10/18 03:48:49;;;;;;;38.47;9.85;;;;;;;2.80;99.37;99289.50;5085804;28;20027;-83
2021/10/18 03:51:14;;;;;;;26.88;8.13;;;;;;;2.88;99.48;99298.31;5103982;28;20319;-83
2021/10/18 03:53:40;;;;;;;37.53;7.18;;;;;;;2.89;99.01;99292.28;5103647;28;20023;-83
2021/10/18 03:56:05;;;;;;;76.80;8.73;;;;;;;2.78;98.51;99288.56;5105078;28;20318;-86
2021/10/18 03:58:31;;;;;;;28.67;8.07;;;;;;;2.60;99.04;99297.69;5104547;28;20058;-83
2021/10/18 04:00:56;;;;;;;35.03;8.48;;;;;;;2.69;99.28;99300.50;5086848;28;20050;-83
2021/10/18 04:03:21;;;;;;;15.00;7.93;;;;;;;2.93;99.18;99314.91;5103498;28;20235;-84
2021/10/18 04:05:47;;;;;;;13.45;6.72;;;;;;;2.95;98.88;99313.22;5099282;28;20062;-83
2021/10/18 04:08:12;;;;;;;26.60;6.35;;;;;;;2.97;98.37;99319.31;5096810;28;20020;-83
2021/10/18 04:10:38;;;;;;;24.02;7.95;;;;;;;2.96;98.24;99314.09;5104555;28;20024;-83
2021/10/18 04:13:03;;;;;;;20.25;7.32;;;;;;;2.99;97.46;99317.63;5103640;28;20027;-83
2021/10/18 04:15:29;;;;;;;16.05;7.25;;;;;;;2.97;97.06;99327.13;5100295;28;20026;-83
2021/10/18 04:17:54;;;;;;;28.27;6.95;;;;;;;2.76;96.70;99311.06;5106104;28;20020;-83
2021/10/18 04:20:20;;;;;;;31.45;7.50;;;;;;;2.47;97.37;99312.16;5106022;28;20298;-83
2021/10/18 04:22:48;;;;;;;18.13;7.05;;;;;;;2.45;97.79;99311.22;5104775;28;20023;-83
2021/10/18 04:25:14;;;;;;;10.32;6.05;;;;;;;2.67;97.74;99313.47;5104678;28;20061;-83
2021/10/18 04:27:40;;;;;;;15.45;6.45;;;;;;;2.83;97.49;99307.75;5104710;28;20020;-83
2021/10/18 04:30:06;;;;;;;19.35;6.97;;;;;;;2.89;96.99;99313.09;5105829;28;20020;-83
2021/10/18 04:32:31;;;;;;;13.18;7.20;;;;;;;2.91;96.99;99308.78;5104612;28;20311;-83
2021/10/18 04:34:57;;;;;;;24.88;7.47;;;;;;;2.73;96.95;99316.22;5104638;28;20208;-83
2021/10/18 04:37:22;;;;;;;18.42;7.32;;;;;;;2.62;97.20;99322.00;5104510;28;20055;-83
2021/10/18 04:39:47;;;;;;;18.90;6.93;;;;;;;2.60;97.42;99318.50;5105629;28;20030;-83
2021/10/18 04:42:13;;;;;;;19.45;8.15;;;;;;;2.66;97.40;99321.22;5105578;28;20016;-83
2021/10/18 04:44:38;;;;;;;25.80;6.78;;;;;;;2.66;97.57;99324.69;5104292;28;20304;-83
2021/10/18 04:47:04;;;;;;;37.05;7.97;;;;;;;2.64;97.67;99321.19;5105488;28;20028;-83
2021/10/18 04:49:30;;;;;;;16.00;6.93;;;;;;;2.78;97.72;99317.16;5104262;28;20023;-83
2021/10/18 04:51:56;;;;;;;15.90;7.38;;;;;;;2.86;96.87;99322.53;5104229;28;20065;-83
2021/10/18 04:54:21;;;;;;;29.10;6.97;;;;;;;2.65;96.74;99322.94;5105358;28;20207;-83
2021/10/18 04:56:46;;;;;;;13.48;6.63;;;;;;;2.64;97.25;99331.59;5104121;28;20038;-83
2021/10/18 04:59:12;;;;;;;16.58;7.18;;;;;;;2.63;97.34;99328.94;5104105;28;20016;-83
2021/10/18 05:01:37;;;;;;;13.93;6.68;;;;;;;2.70;97.59;99338.63;5105264;28;20023;-83
2021/10/18 05:04:02;;;;;;;40.33;8.23;;;;;;;2.61;97.39;99344.50;5103740;28;20032;-83
2021/10/18 05:06:28;;;;;;;42.28;7.13;;;;;;;2.62;97.88;99346.25;5105180;28;20023;-83
2021/10/18 05:08:54;;;;;;;15.57;6.63;;;;;;;2.68;98.09;99356.78;5103931;28;20050;-83
2021/10/18 05:11:20;;;;;;;15.02;6.60;;;;;;;2.83;97.64;99364.06;5103895;28;20024;-83
2021/10/18 05:13:46;;;;;;;11.63;6.68;;;;;;;2.83;97.55;99364.06;5104978;28;20043;-83
2021/10/18 05:16:11;;;;;;;16.58;7.15;;;;;;;2.75;97.11;99366.47;5104951;28;20311;-83
2021/10/18 05:18:37;;;;;;;30.40;7.22;;;;;;;2.72;97.41;99361.22;5104947;28;20087;-83
2021/10/18 05:21:05;;;;;;;21.02;6.15;;;;;;;2.74;97.78;99364.72;5104901;28;20219;-83
2021/10/18 05:23:34;;;;;;;14.15;7.22;;;;;;;2.87;97.62;99369.38;5103608;28;20339;-83
2021/10/18 05:26:01;;;;;;;13.65;7.25;;;;;;;2.88;97.46;99371.09;5103657;28;20199;-83
2021/10/18 05:28:26;;;;;;;36.78;7.13;;;;;;;2.91;97.73;99373.78;5103607;28;20016;-83
2021/10/18 05:30:52;;;;;;;16.35;6.13;;;;;;;2.99;97.60;99372.25;5104722;28;20065;-83
2021/10/18 05:33:17;;;;;;;21.35;6.50;;;;;;;2.92;97.51;99370.34;5103508;28;20311;-83
2021/10/18 05:35:42;;;;;;;25.02;6.57;;;;;;;2.92;97.54;99369.47;5104625;28;20081;-83
2021/10/18 05:38:08;;;;;;;21.77;6.15;;;;;;;2.96;97.61;99371.28;5103398;28;20077;-83
2021/10/18 05:40:34;;;;;;;18.92;6.10;;;;;;;2.99;98.48;99377.44;5103402;28;20016;-83
2021/10/18 05:42:59;;;;;;;16.60;6.85;;;;;;;3.02;97.81;99382.72;5104522;28;20045;-83
2021/10/18 05:45:24;;;;;;;38.97;7.32;;;;;;;3.01;97.86;99386.13;5102843;28;20346;-83
2021/10/18 05:47:51;;;;;;;21.23;7.07;;;;;;;3.03;97.96;99384.47;5103264;28;20073;-83
2021/10/18 05:50:16;;;;;;;14.07;7.50;;;;;;;3.01;97.67;99380.94;5104395;28;20141;-83
2021/10/18 05:52:42;;;;;;;48.90;8.43;;;;;;;2.98;97.57;99386.09;5103227;28;20023;-83
2021/10/18 05:55:07;;;;;;;35.95;7.68;;;;;;;2.96;97.95;99382.56;5103168;28;20369;-83
2021/10/18 05:57:44;;;;;;;13.40;7.78;;;;;;;2.96;97.72;99387.78;5104245;28;20120;-83
2021/10/18 06:00:11;;;;;;;25.13;7.82;;;;;;;3.04;97.57;99386.22;5104333;28;20024;-83
2021/10/18 06:02:36;;;;;;;21.02;7.40;;;;;;;3.05;97.37;99377.59;5104201;28;20082;-83
2021/10/18 06:05:02;;;;;;;18.88;7.50;;;;;;;3.09;97.48;99386.31;5102730;28;20044;-83
2021/10/18 06:07:27;;;;;;;20.70;8.48;;;;;;;3.11;97.60;99388.13;5104215;28;20030;-83
2021/10/18 06:09:52;;;;;;;19.85;8.10;;;;;;;3.18;98.12;99383.91;5104159;28;20044;-83
2021/10/18 06:12:18;;;;;;;18.73;8.25;;;;;;;3.20;97.51;99403.91;5104149;28;20027;-83
2021/10/18 06:14:43;;;;;;;24.40;8.18;;;;;;;3.30;97.18;99400.69;5102958;28;20095;-83
2021/10/18 06:17:08;;;;;;;13.65;7.30;;;;;;;3.33;97.86;99410.25;5104108;28;20345;-83
2021/10/18 06:19:34;;;;;;;26.70;8.32;;;;;;;3.34;97.48;99402.50;5102903;28;20024;-83
2021/10/18 06:21:59;;;;;;;32.92;8.38;;;;;;;3.29;97.51;99398.91;5104054;28;20024;-83
2021/10/18 06:24:25;;;;;;;20.05;8.20;;;;;;;3.39;97.52;99406.06;5102824;28;20095;-83
2021/10/18 06:26:50;;;;;;;25.00;8.38;;;;;;;3.22;98.02;99402.22;5103988;28;20027;-83
2021/10/18 06:29:15;;;;;;;17.13;8.77;;;;;;;3.48;98.35;99416.66;5103955;28;20044;-83
2021/10/18 06:31:41;;;;;;;22.63;10.57;;;;;;;3.56;98.56;99420.31;5102827;28;20024;-83
2021/10/18 06:34:06;;;;;;;19.42;8.48;;;;;;;3.70;98.13;99424.06;5102763;28;20024;-83
2021/10/18 06:36:32;;;;;;;16.30;8.55;;;;;;;3.75;97.72;99421.56;5103918;28;20237;-83
2021/10/18 06:38:57;;;;;;;25.20;9.30;;;;;;;3.76;98.13;99418.09;5103921;28;20031;-83
2021/10/18 06:41:22;;;;;;;23.05;10.48;;;;;;;3.72;98.26;99419.78;5102741;28;20024;-83
2021/10/18 06:43:48;;;;;;;22.83;10.55;;;;;;;3.86;98.34;99433.06;5103770;28;20028;-83
2021/10/18 06:46:13;;;;;;;22.70;10.70;;;;;;;3.89;98.51;99431.38;5103867;28;20079;-83
2021/10/18 06:48:39;;;;;;;24.77;11.35;;;;;;;4.10;98.40;99430.91;5102600;28;20319;-83
2021/10/18 06:51:05;;;;;;;32.10;10.65;;;;;;;4.17;99.12;99423.25;5103801;28;20023;-83
2021/10/18 06:53:32;;;;;;;24.17;11.13;;;;;;;4.38;98.70;99428.84;5103786;28;20023;-83
2021/10/18 06:56:04;;;;;;;30.85;12.68;;;;;;;4.42;98.75;99425.44;5102589;28;20085;-83
2021/10/18 06:58:29;;;;;;;29.63;13.25;;;;;;;4.52;98.81;99436.03;5105511;28;20019;-83
2021/10/18 07:00:55;;;;;;;23.67;12.55;;;;;;;4.58;98.54;99430.94;5107580;28;20222;-83
2021/10/18 07:03:21;;;;;;;30.40;13.32;;;;;;;4.72;99.02;99434.63;5107209;28;20059;-83
2021/10/18 07:05:46;;;;;;;35.10;14.77;;;;;;;4.84;98.45;99446.13;5107512;28;20024;-83
2021/10/18 07:08:12;;;;;;;31.65;14.63;;;;;;;4.92;98.77;99443.63;5107416;28;20354;-83
2021/10/18 07:10:37;;;;;;;29.77;13.77;;;;;;;4.99;98.90;99448.09;5106222;28;20024;-83
2021/10/18 07:13:05;;;;;;;35.03;15.25;;;;;;;5.13;98.65;99450.09;5106190;28;20322;-83
2021/10/18 07:15:31;;;;;;;38.22;15.50;;;;;;;5.26;99.12;99451.13;5106155;28;20250;-83
2021/10/18 07:17:56;;;;;;;36.22;12.70;;;;;;;5.32;99.45;99456.44;5106156;28;20096;-83
2021/10/18 07:20:22;;;;;;;35.17;14.43;;;;;;;5.53;99.50;99456.72;5106046;28;20020;-83
2021/10/18 07:22:49;;;;;;;37.72;15.27;;;;;;;5.65;99.36;99454.28;5106033;28;20061;-83
2021/10/18 07:25:15;;;;;;;34.78;13.88;;;;;;;5.81;99.39;99458.84;5105885;28;20016;-83
2021/10/18 07:27:43;;;;;;;31.05;12.73;;;;;;;5.94;98.81;99455.53;5105924;28;20031;-83
2021/10/18 07:30:09;;;;;;;42.53;18.02;;;;;;;6.04;98.91;99457.41;5105863;28;20091;-83
2021/10/18 07:32:36;;;;;;;33.85;15.40;;;;;;;6.13;98.47;99452.28;5105761;28;20065;-83
2021/10/18 07:35:03;;;;;;;25.08;12.07;;;;;;;6.30;98.61;99521.34;5105765;28;20069;-83
2021/10/18 07:37:29;;;;;;;24.75;10.50;;;;;;;6.50;97.69;99462.28;5105727;28;20024;-83
2021/10/18 07:39:55;;;;;;;24.20;11.15;;;;;;;6.61;97.53;99471.09;5105673;28;20020;-83
2021/10/18 07:42:20;;;;;;;24.75;10.90;;;;;;;6.61;97.17;99458.00;5106793;28;20030;-83
2021/10/18 07:44:46;;;;;;;23.88;10.80;;;;;;;6.76;96.75;99479.09;5105557;28;20024;-83
2021/10/18 07:47:12;;;;;;;22.67;11.70;;;;;;;6.82;96.97;99468.69;5105539;28;20035;-83
2021/10/18 07:49:40;;;;;;;25.25;10.80;;;;;;;6.97;97.09;99465.31;5106644;28;20324;-83
2021/10/18 07:52:11;;;;;;;29.15;10.88;;;;;;;6.99;97.05;99461.84;5106612;28;20024;-83
2021/10/18 07:54:37;;;;;;;20.80;9.55;;;;;;;7.11;96.81;99467.19;5106658;28;20016;-83
2021/10/18 07:57:02;;;;;;;19.98;9.10;;;;;;;7.19;96.49;99470.75;5106572;28;20215;-83
2021/10/18 07:59:28;;;;;;;19.80;9.75;;;;;;;7.33;97.45;99479.56;5105321;28;20016;-83
2021/10/18 08:01:55;;;;;;;21.88;9.48;;;;;;;7.37;96.56;99476.09;5105263;28;20024;-83
2021/10/18 08:04:20;;;;;;;21.08;9.00;;;;;;;7.74;95.52;99488.53;5106150;28;20043;-83
2021/10/18 08:06:46;;;;;;;19.88;8.35;;;;;;;7.60;95.00;99477.13;5105141;28;20015;-83
2021/10/18 08:09:12;;;;;;;23.38;9.70;;;;;;;7.37;96.08;99481.31;5105980;28;20024;-83
2021/10/18 08:11:38;;;;;;;20.10;9.38;;;;;;;7.66;96.87;99479.75;5104909;28;20023;-83
2021/10/18 08:14:04;;;;;;;26.02;9.75;;;;;;;7.47;96.81;99483.13;5106140;28;20284;-83
2021/10/18 08:16:29;;;;;;;17.30;8.23;;;;;;;7.58;96.14;99483.19;5106108;28;20046;-83
2021/10/18 08:18:55;;;;;;;16.73;7.63;;;;;;;7.68;97.03;99493.75;5106073;28;20020;-83
2021/10/18 08:21:22;;;;;;;27.60;9.10;;;;;;;7.54;96.23;99495.44;5106028;28;20039;-83
2021/10/18 08:23:47;;;;;;;19.13;9.15;;;;;;;7.54;96.77;99490.19;5104732;28;20334;-83
2021/10/18 08:26:12;;;;;;;18.48;8.98;;;;;;;7.59;97.06;99488.44;5105951;28;20024;-83
2021/10/18 08:28:38;;;;;;;19.92;10.23;;;;;;;7.65;96.99;99485.88;5105873;28;20215;-83
2021/10/18 08:31:04;;;;;;;20.30;9.50;;;;;;;7.74;96.65;99472.81;5104660;28;20050;-83
2021/10/18 08:33:29;;;;;;;22.08;8.95;;;;;;;7.93;97.12;99474.66;5105792;28;20020;-83
2021/10/18 08:35:55;;;;;;;18.88;9.18;;;;;;;7.94;96.41;99479.03;5104566;28;20012;-83
2021/10/18 08:41:33;;;;;;;20.88;9.05;;;;;;;8.09;95.81;99486.97;5105666;28;20022;-83
2021/10/18 08:46:05;;;;;;;18.67;9.13;;;;;;;8.05;95.14;99487.84;5105874;28;20094;-83
2021/10/18 08:48:31;;;;;;;20.38;9.63;;;;;;;8.03;96.07;99476.44;5105534;28;20319;-83
2021/10/18 08:50:57;;;;;;;16.70;8.35;;;;;;;8.12;95.78;99475.59;5105404;28;20341;-83
2021/10/18 08:53:22;;;;;;;19.45;9.20;;;;;;;8.13;95.07;99477.38;5105417;28;20051;-83
2021/10/18 08:55:48;;;;;;;20.95;9.80;;;;;;;8.06;96.59;99489.56;5105378;28;20024;-83
2021/10/18 08:58:13;;;;;;;18.73;8.93;;;;;;;8.21;95.55;99487.03;5105336;28;20027;-83
2021/10/18 09:00:40;;;;;;;19.30;9.57;;;;;;;8.39;95.48;99487.09;5104153;28;20023;-83
2021/10/18 09:03:22;;;;;;;20.52;8.48;;;;;;;8.55;95.09;99491.50;5103848;28;20347;-83
2021/10/18 09:05:48;;;;;;;19.50;9.40;;;;;;;8.31;95.01;99488.81;5105235;28;20321;-83
2021/10/18 09:08:36;;;;;;;19.83;9.05;;;;;;;8.50;94.96;99488.00;5103964;28;20130;-83
2021/10/18 09:11:02;;;;;;;20.95;10.05;;;;;;;8.49;94.87;99488.84;5103970;28;20024;-83
2021/10/18 09:13:28;;;;;;;20.98;10.40;;;;;;;8.51;95.07;99495.00;5105036;28;20027;-83
2021/10/18 09:15:53;;;;;;;19.92;10.00;;;;;;;8.70;95.45;99488.91;5103871;28;20277;-83
2021/10/18 09:18:19;;;;;;;23.20;10.43;;;;;;;8.80;94.83;99488.03;5103799;28;20121;-83
2021/10/18 09:20:46;;;;;;;19.17;9.52;;;;;;;8.36;94.34;99487.06;5104243;28;20043;-83
2021/10/18 09:23:18;;;;;;;20.92;10.80;;;;;;;8.41;94.91;99484.47;5103692;28;20024;-83
2021/10/18 09:25:44;;;;;;;30.75;10.35;;;;;;;8.38;95.19;99495.84;5104785;28;20020;-83
2021/10/18 09:28:15;;;;;;;22.58;10.57;;;;;;;8.25;95.43;99488.81;5104781;28;20312;-83
2021/10/18 09:30:46;;;;;;;23.92;11.02;;;;;;;8.46;95.79;99490.63;5104760;28;20016;-83
2021/10/18 09:33:26;;;;;;;22.85;10.55;;;;;;;8.50;95.59;99488.00;5103534;28;20016;-83
2021/10/18 09:35:53;;;;;;;20.42;10.25;;;;;;;8.71;95.41;99495.06;5103496;28;20030;-83
2021/10/18 09:38:21;;;;;;;20.00;9.63;;;;;;;8.82;94.11;99502.94;5103430;28;20189;-83
2021/10/18 09:40:51;;;;;;;23.33;11.43;;;;;;;8.97;94.39;99502.94;5103403;28;20020;-83
2021/10/18 09:46:01;;;;;;;22.58;12.57;;;;;;;9.23;93.45;99501.19;5104517;28;20350;-83
2021/10/18 10:53:32;;;;;;;16.95;9.68;;;;;;;10.53;87.71;99492.06;5108174;28;20016;-83
2021/10/18 10:57:11;;;;;;;21.25;11.75;;;;;;;10.50;88.88;99489.47;5106602;28;20020;-83
2021/10/18 10:59:28;;;;;;;21.80;10.68;;;;;;;10.08;88.27;99476.50;5105434;28;20323;-83
2021/10/18 11:02:00;;;;;;;21.02;10.65;;;;;;;10.18;88.93;99478.22;5107629;28;20016;-83
2021/10/18 11:04:31;;;;;;;21.85;11.80;;;;;;;9.93;88.96;99487.94;5106078;28;20327;-83
2021/10/18 11:06:58;;;;;;;19.33;11.27;;;;;;;10.06;89.40;99473.00;5106351;28;20055;-83
2021/10/18 11:09:39;;;;;;;22.08;11.80;;;;;;;10.06;88.48;99473.88;5106258;28;20020;-83
2021/10/18 11:12:33;;;;;;;21.27;12.18;;;;;;;9.91;89.45;99467.78;5107408;28;20386;-83
2021/10/18 11:15:14;;;;;;;23.08;12.73;;;;;;;9.98;89.07;99466.88;5106529;28;20036;-83
2021/10/18 11:17:48;;;;;;;20.17;11.73;;;;;;;10.00;88.81;99468.63;5107340;28;20020;-83
2021/10/18 11:20:24;;;;;;;24.65;13.02;;;;;;;9.91;89.79;99458.13;5107224;28;20055;-83
2021/10/18 11:22:58;;;;;;;23.73;12.25;;;;;;;9.82;89.79;99452.03;5106085;28;20042;-83
2021/10/18 11:25:26;;;;;;;22.30;12.68;;;;;;;9.94;90.27;99452.00;5107094;28;20027;-83
2021/10/18 11:27:55;;;;;;;24.52;13.35;;;;;;;9.78;90.25;99455.56;5107090;28;20015;-83
2021/10/18 11:30:22;;;;;;;21.42;12.90;;;;;;;9.83;90.48;99456.41;5107053;28;20216;-83
2021/10/18 11:33:07;;;;;;;24.58;14.30;;;;;;;10.00;90.04;99463.34;5105893;28;20027;-83
2021/10/18 11:35:33;;;;;;;24.92;12.57;;;;;;;10.00;89.83;99462.50;5105822;28;20035;-83
2021/10/18 11:38:08;;;;;;;21.73;12.55;;;;;;;10.08;89.76;99455.47;5105726;28;20023;-83
2021/10/18 11:40:41;;;;;;;22.02;12.63;;;;;;;10.14;89.26;99450.19;5105746;28;20061;-83
2021/10/18 11:43:12;;;;;;;22.08;12.23;;;;;;;10.37;89.13;99453.56;5104985;28;20020;-83
2021/10/18 11:45:46;;;;;;;20.98;12.20;;;;;;;10.33;89.10;99452.72;5105555;28;20025;-83
2021/10/18 11:48:17;;;;;;;22.17;12.20;;;;;;;10.26;89.41;99447.50;5106741;28;20024;-83
2021/10/18 11:50:44;;;;;;;26.17;13.57;;;;;;;10.24;89.25;99442.25;5106663;28;20028;-83
2021/10/18 11:53:20;;;;;;;23.52;11.95;;;;;;;10.56;89.16;99436.78;5105477;28;20027;-83
2021/10/18 11:55:48;;;;;;;25.45;12.48;;;;;;;10.29;88.62;99434.34;5105416;28;20142;-83
2021/10/18 11:58:37;;;;;;;21.35;12.13;;;;;;;10.51;89.24;99436.81;5105348;28;20047;-83
2021/10/18 12:01:05;;;;;;;27.92;13.02;;;;;;;10.47;88.54;99426.31;5105340;28;20024;-83
2021/10/18 12:03:32;;;;;;;24.13;13.23;;;;;;;10.55;88.78;99430.66;5106151;28;20239;-83
2021/10/18 12:06:01;;;;;;;20.60;11.60;;;;;;;11.00;87.29;99437.31;5106369;28;20073;-83
2021/10/18 12:08:31;;;;;;;22.20;12.05;;;;;;;11.22;86.79;99425.72;5106351;28;20261;-83
2021/10/18 12:10:59;;;;;;;17.45;10.93;;;;;;;11.42;85.78;99428.16;5105110;28;20103;-83
2021/10/18 12:13:29;;;;;;;21.70;11.43;;;;;;;11.35;86.69;99413.28;5106212;28;20091;-83
2021/10/18 12:16:04;;;;;;;19.33;11.32;;;;;;;11.35;86.59;99414.16;5105002;28;20028;-83
2021/10/18 12:18:31;;;;;;;20.05;11.75;;;;;;;11.23;85.94;99408.16;5106165;28;20020;-83
2021/10/18 12:21:06;;;;;;;22.00;11.18;;;;;;;11.06;86.63;99405.66;5106073;28;20028;-83
2021/10/18 12:23:35;;;;;;;16.95;10.60;;;;;;;11.18;86.28;99404.69;5104756;28;20193;-83
2021/10/18 12:26:13;;;;;;;20.80;11.02;;;;;;;11.55;86.56;99401.63;5104836;28;20278;-83
2021/10/18 12:28:46;;;;;;;18.13;10.52;;;;;;;11.68;86.70;99408.56;5104880;28;20019;-83
2021/10/18 12:31:31;;;;;;;16.73;9.82;;;;;;;11.69;85.31;99402.41;5104743;28;20307;-83
2021/10/18 12:34:07;;;;;;;19.75;11.80;;;;;;;11.85;84.97;99396.06;5104709;28;20011;-83
2021/10/18 12:36:51;;;;;;;19.80;11.35;;;;;;;11.92;84.80;99397.72;5105824;28;20019;-83
2021/10/18 12:39:38;;;;;;;19.83;11.93;;;;;;;11.95;85.15;99386.25;5105766;28;20019;-83
2021/10/18 12:42:06;;;;;;;22.45;12.32;;;;;;;11.67;85.55;99384.88;5102012;28;20032;-83